Time;durP1;ratioP1;P1;durP2;ratioP2;P2;SDS_P1;SDS_P2;PMS_P1;PMS_P2;Temp;Humidity;BMP_temperature;BMP_pressure;BME280_temperature;BME280_humidity;BME280_pressure;Samples;Min_cycle;Max_cycle;Signal;HPM_P1;HPM_P2
2022/12/09 00:01:36;;;;;;;18.57;9.97;;;0.00;93.90;;;3.60;51.79;96570.09;5004307;28;20048;-53
2022/12/09 00:04:04;;;;;;;21.10;11.23;;;0.00;92.60;;;3.57;51.56;96570.41;5004681;28;20060;-54
2022/12/09 00:06:32;;;;;;;23.30;11.50;;;0.00;92.90;;;3.55;51.40;96564.44;5005305;28;20046;-53
2022/12/09 00:09:00;;;;;;;16.57;9.57;;;-0.10;92.90;;;3.54;51.23;96565.41;5004632;28;20252;-50
2022/12/09 00:11:28;;;;;;;18.87;9.13;;;0.00;93.50;;;3.53;51.39;96566.41;5005393;28;20050;-50
2022/12/09 00:13:58;;;;;;;13.63;7.17;;;0.00;93.10;;;3.50;51.45;96558.78;5005321;28;20050;-50
2022/12/09 00:16:26;;;;;;;12.97;7.67;;;-0.10;92.40;;;3.48;51.62;96564.19;5004180;28;20052;-54
2022/12/09 00:18:56;;;;;;;11.67;6.43;;;-0.10;92.80;;;3.46;51.55;96554.78;5005208;28;20046;-56
2022/12/09 00:21:31;;;;;;;15.07;7.40;;;-0.20;93.10;;;3.43;51.57;96552.41;5004911;28;20034;-54
2022/12/09 00:24:04;;;;;;;12.20;7.17;;;-0.10;93.20;;;3.46;51.47;96552.97;5005227;28;20054;-56
2022/12/09 00:26:33;;;;;;;11.20;6.43;;;-0.10;92.60;;;3.47;51.46;96552.00;5003229;28;20376;-57
2022/12/09 00:29:01;;;;;;;9.23;5.17;;;-0.10;92.20;;;3.47;51.13;96546.75;5005020;28;20046;-54
2022/12/09 00:31:32;;;;;;;9.60;5.90;;;-0.10;91.70;;;3.49;51.36;96543.94;5004644;28;20046;-57
2022/12/09 00:34:07;;;;;;;9.73;5.80;;;-0.10;91.60;;;3.49;51.15;96539.53;5004985;28;20106;-55
2022/12/09 00:36:37;;;;;;;10.40;6.50;;;-0.10;91.30;;;3.51;51.25;96536.75;5003858;28;20046;-57
2022/12/09 00:39:05;;;;;;;11.10;6.57;;;0.00;91.70;;;3.55;51.27;96541.59;5004773;28;20065;-53
2022/12/09 00:41:33;;;;;;;9.63;6.13;;;0.00;91.70;;;3.57;51.18;96535.34;5004785;28;20046;-52
2022/12/09 00:44:00;;;;;;;10.33;5.63;;;0.10;90.40;;;3.59;51.31;96536.88;5005129;28;20057;-52
2022/12/09 00:46:29;;;;;;;11.57;5.70;;;0.10;90.40;;;3.59;51.30;96538.66;5004910;28;20046;-54
2022/12/09 00:48:57;;;;;;;9.53;6.13;;;0.10;90.00;;;3.57;51.33;96548.50;5003987;28;20058;-55
2022/12/09 00:51:25;;;;;;;8.97;5.37;;;0.10;89.40;;;3.56;50.99;96547.66;5003129;28;20049;-52
2022/12/09 00:53:54;;;;;;;9.23;5.43;;;0.00;87.90;;;3.44;50.99;96551.47;5011407;28;20056;-54
2022/12/09 00:56:25;;;;;;;10.83;5.70;;;-0.20;88.80;;;3.31;51.11;96547.31;5004624;28;20265;-53
2022/12/09 00:58:53;;;;;;;9.07;5.27;;;-0.30;90.10;;;3.32;51.34;96546.38;5003862;28;20276;-53
2022/12/09 01:01:22;;;;;;;8.93;6.00;;;-0.30;91.00;;;3.33;50.91;96548.03;5003108;28;20048;-54
2022/12/09 01:03:50;;;;;;;12.50;7.63;;;-0.30;90.80;;;3.32;51.24;96556.06;5011150;28;20065;-51
2022/12/09 01:06:22;;;;;;;16.30;8.27;;;-0.30;91.20;;;3.33;51.18;96555.94;5019223;28;20061;-51
2022/12/09 01:08:51;;;;;;;15.03;8.03;;;-0.30;91.10;;;3.32;51.25;96551.63;5003087;28;20053;-54
2022/12/09 01:11:24;;;;;;;10.47;7.07;;;-0.20;90.70;;;3.31;50.85;96552.59;5003734;28;20354;-54
2022/12/09 01:13:56;;;;;;;10.87;6.90;;;-0.30;90.50;;;3.28;51.10;96557.31;5004132;28;20052;-52
2022/12/09 01:16:27;;;;;;;12.03;6.80;;;-0.30;90.60;;;3.25;50.88;96550.53;5004213;28;20046;-53
2022/12/09 01:19:00;;;;;;;12.83;6.20;;;-0.40;90.90;;;3.22;50.97;96558.72;5002654;28;20054;-52
2022/12/09 01:21:30;;;;;;;11.50;6.83;;;-0.40;90.80;;;3.21;51.23;96562.31;5002451;28;20056;-52
2022/12/09 01:23:58;;;;;;;10.93;7.07;;;-0.40;91.40;;;3.19;51.15;96559.00;5002260;28;20054;-50
2022/12/09 01:26:26;;;;;;;11.77;6.73;;;-0.40;91.20;;;3.15;50.96;96561.06;5003181;28;20052;-50
2022/12/09 01:28:56;;;;;;;9.67;6.17;;;-0.40;91.70;;;3.13;51.07;96557.75;5004074;28;20058;-51
2022/12/09 01:31:25;;;;;;;10.23;6.47;;;-0.40;91.50;;;3.15;51.12;96555.81;5002237;28;20042;-51
2022/12/09 01:33:54;;;;;;;13.57;7.13;;;-0.40;91.30;;;3.15;51.22;96544.47;5003838;28;20048;-49
2022/12/09 01:36:27;;;;;;;9.73;5.97;;;-0.40;90.50;;;3.14;51.19;96554.16;5002532;28;20375;-50
2022/12/09 01:38:58;;;;;;;9.73;5.83;;;-0.50;90.70;;;3.10;50.81;96551.94;5003718;28;20047;-51
2022/12/09 01:41:27;;;;;;;9.67;5.60;;;-0.50;90.50;;;3.06;50.95;96545.31;5002140;28;20080;-53
2022/12/09 01:44:18;;;;;;;12.53;6.30;;;-0.50;91.00;;;3.00;51.28;96549.34;5002425;28;20046;-51
2022/12/09 01:46:46;;;;;;;11.37;6.10;;;-0.50;91.50;;;3.05;51.51;96546.31;5002413;28;20233;-53
2022/12/09 01:49:35;;;;;;;13.73;6.23;;;-0.50;91.60;;;3.01;51.06;96532.59;4995660;28;20252;-50
2022/12/09 01:52:12;;;;;;;12.50;6.10;;;-0.50;91.00;;;3.06;51.38;96534.78;5003297;28;20181;-52
2022/12/09 01:54:43;;;;;;;8.93;4.90;;;-0.50;91.20;;;3.07;50.90;96539.91;5018184;28;20050;-51
2022/12/09 01:57:12;;;;;;;9.47;6.17;;;-0.50;91.20;;;3.08;51.26;96532.84;5002029;28;20248;-54
2022/12/09 01:59:41;;;;;;;10.47;6.23;;;-0.50;91.10;;;3.05;50.97;96525.25;5002124;28;20226;-53
2022/12/09 02:02:15;;;;;;;11.07;6.47;;;-0.50;90.90;;;3.05;51.07;96525.25;4985769;28;20058;-57
2022/12/09 02:04:47;;;;;;;;;;;-0.50;90.80;;;2.95;51.46;96517.41;5002735;28;20056;-57
2022/12/09 02:07:17;;;;;;;12.23;5.97;;;-0.50;90.00;;;3.01;50.90;96505.47;4986718;28;19924;-55
2022/12/09 02:09:46;;;;;;;10.70;6.80;;;-0.60;90.60;;;2.99;51.01;96500.38;5001708;28;20058;-54
2022/12/09 02:12:36;;;;;;;16.17;8.67;;;-0.70;90.30;;;2.95;51.05;96499.00;4986267;28;20219;-57
2022/12/09 02:15:15;;;;;;;11.30;7.20;;;-0.70;91.10;;;2.97;50.52;96494.41;5009648;28;20234;-54
2022/12/09 02:18:01;;;;;;;12.83;7.33;;;-0.60;90.30;;;2.90;51.02;96490.69;5002588;28;20054;-57
2022/12/09 02:20:52;;;;;;;15.93;8.13;;;-0.70;90.10;;;2.87;50.58;96489.19;4995509;28;20057;-52
2022/12/09 02:23:42;;;;;;;11.87;5.93;;;-0.70;90.00;;;2.85;50.97;96488.50;4986731;28;20046;-53
2022/12/09 02:26:47;;;;;;;10.50;7.07;;;-0.60;90.60;;;2.78;51.14;96487.38;5018055;28;20075;-51
2022/12/09 02:29:59;;;;;;;12.20;7.07;;;-0.70;90.80;;;2.76;51.16;96478.81;4994147;28;20060;-53
2022/12/09 02:32:42;;;;;;;8.03;5.63;;;-0.70;91.10;;;2.81;51.30;96483.63;5010713;28;20050;-54
2022/12/09 02:35:38;;;;;;;12.87;7.27;;;-0.70;90.70;;;2.79;51.36;96480.31;5018301;28;20241;-51
2022/12/09 02:38:31;;;;;;;11.30;7.07;;;-0.70;90.40;;;2.74;51.36;96481.59;5001006;28;20062;-52
2022/12/09 02:41:27;;;;;;;14.70;8.20;;;-0.70;90.20;;;2.76;50.78;96476.19;4996443;28;20072;-53
2022/12/09 02:44:18;;;;;;;14.63;7.87;;;-0.80;89.60;;;2.72;50.86;96473.00;4995011;28;20060;-52
2022/12/09 02:46:47;;;;;;;11.33;6.83;;;-0.80;89.60;;;2.73;50.81;96458.91;5001501;28;20046;-52
2022/12/09 02:49:16;;;;;;;13.27;7.07;;;-0.90;90.10;;;2.73;50.55;96458.06;5001339;28;20056;-53
2022/12/09 02:51:45;;;;;;;11.03;7.00;;;-0.90;90.30;;;2.73;50.49;96458.91;5001128;28;20052;-54
2022/12/09 02:54:17;;;;;;;11.17;7.37;;;-0.80;90.30;;;2.71;50.65;96462.63;5016855;28;20049;-54
2022/12/09 02:56:55;;;;;;;9.23;5.90;;;-0.80;89.90;;;2.66;50.39;96470.94;5001302;28;20052;-54
2022/12/09 02:59:26;;;;;;;11.90;7.40;;;-0.80;90.00;;;2.67;50.77;96461.25;4995010;28;20056;-53
2022/12/09 03:02:06;;;;;;;9.43;7.33;;;-0.90;90.30;;;2.64;51.10;96456.31;5002006;28;20225;-52
2022/12/09 03:04:39;;;;;;;12.53;5.93;;;-0.90;90.70;;;2.65;50.99;96450.06;5002123;28;20060;-51
2022/12/09 03:07:54;;;;;;;14.13;7.27;;;-0.90;91.30;;;2.53;50.75;96438.88;5002174;28;20252;-51
2022/12/09 03:10:50;;;;;;;9.85;6.22;;;-0.90;90.10;;;2.53;50.83;96447.59;4994864;28;20050;-51
2022/12/09 03:13:36;;;;;;;10.30;6.60;;;-1.00;90.80;;;2.46;51.21;96450.91;5002093;28;20042;-49
2022/12/09 03:16:31;;;;;;;12.90;6.93;;;-1.10;90.80;;;2.36;51.22;96443.03;5002233;28;20052;-49
2022/12/09 03:19:25;;;;;;;13.37;7.93;;;-1.30;90.50;;;2.24;51.09;96437.09;5001239;28;20358;-53
2022/12/09 03:21:59;;;;;;;12.30;7.13;;;-1.40;92.00;;;2.29;50.69;96431.44;5000622;28;20105;-49
2022/12/09 03:24:36;;;;;;;8.90;6.23;;;-1.40;92.20;;;2.29;51.34;96431.44;4995376;28;20046;-51
2022/12/09 03:27:11;;;;;;;10.63;7.10;;;-1.40;93.10;;;2.28;51.33;96429.78;5000959;28;20055;-53
2022/12/09 03:29:45;;;;;;;14.80;7.37;;;-1.40;93.30;;;2.32;51.50;96431.97;5001144;28;20053;-50
2022/12/09 03:32:15;;;;;;;;;;;-1.30;93.30;;;2.24;51.77;96423.97;5001725;28;20047;-54
2022/12/09 03:34:46;;;;;;;14.50;7.37;;;-1.30;92.80;;;2.36;51.14;96428.13;5004990;28;19918;-49
2022/12/09 03:37:18;;;;;;;23.30;11.60;;;-1.30;93.10;;;2.35;51.14;96423.00;5004833;28;20050;-54
2022/12/09 03:39:48;;;;;;;21.27;10.93;;;-1.30;93.00;;;2.32;51.02;96425.91;5004637;28;20056;-54
2022/12/09 03:42:25;;;;;;;29.47;13.10;;;-1.30;92.80;;;2.32;51.65;96423.28;4996554;28;20046;-49
2022/12/09 03:45:04;;;;;;;28.87;13.10;;;-1.30;92.60;;;2.30;50.95;96433.09;5004789;28;20046;-54
2022/12/09 03:47:32;;;;;;;21.30;11.07;;;-1.30;92.60;;;2.31;51.32;96432.13;4998288;28;20229;-53
2022/12/09 03:50:01;;;;;;;19.97;9.20;;;-1.30;92.30;;;2.33;51.25;96417.88;5004110;28;20050;-52
2022/12/09 03:52:49;;;;;;;17.17;8.00;;;-1.30;91.90;;;2.33;50.98;96422.31;5004482;28;20044;-53
2022/12/09 03:55:25;;;;;;;16.17;9.13;;;-1.30;90.90;;;2.32;51.28;96424.09;5005552;28;20052;-54
2022/12/09 03:57:58;;;;;;;13.80;8.20;;;-1.30;91.10;;;2.29;51.25;96419.16;5005315;28;20061;-54
2022/12/09 04:00:26;;;;;;;12.50;7.57;;;-1.30;91.70;;;2.32;51.32;96421.47;5013022;28;20060;-53
2022/12/09 04:02:54;;;;;;;16.93;8.47;;;-1.30;92.00;;;2.35;51.54;96420.38;5005494;28;20065;-54
2022/12/09 04:05:23;;;;;;;19.70;9.00;;;-1.30;92.00;;;2.38;51.53;96420.09;5005678;28;20054;-53
2022/12/09 04:07:51;;;;;;;15.37;7.80;;;-1.20;91.30;;;2.41;51.08;96417.19;5004307;28;20256;-50
2022/12/09 04:10:19;;;;;;;16.17;8.90;;;-1.10;91.80;;;2.39;50.98;96416.50;5005055;28;20061;-50
2022/12/09 04:12:47;;;;;;;13.23;7.37;;;-1.20;90.50;;;2.42;51.27;96418.00;5005296;28;20035;-49
2022/12/09 04:15:14;;;;;;;14.33;8.37;;;-1.20;91.40;;;2.38;51.18;96421.91;5005248;28;20038;-48
2022/12/09 04:17:42;;;;;;;11.23;7.10;;;-1.30;90.70;;;2.38;51.03;96419.25;5004139;28;20060;-53
2022/12/09 04:20:11;;;;;;;14.37;8.67;;;-1.30;91.90;;;2.39;51.50;96420.94;5003735;28;20049;-53
2022/12/09 04:22:42;;;;;;;16.07;8.57;;;-1.30;92.30;;;2.43;51.36;96415.25;5005102;28;20313;-52
2022/12/09 04:25:10;;;;;;;17.47;8.50;;;-1.20;91.40;;;2.43;50.92;96411.81;5003682;28;20054;-54
2022/12/09 04:27:38;;;;;;;15.27;8.43;;;-1.20;91.10;;;2.45;50.61;96409.88;5003312;28;20042;-52
2022/12/09 04:30:07;;;;;;;15.93;8.83;;;-1.20;90.20;;;2.44;50.79;96408.19;5004631;28;20054;-49
2022/12/09 04:32:35;;;;;;;14.20;8.60;;;-1.30;91.30;;;2.44;50.69;96400.31;5004846;28;20366;-51
2022/12/09 04:35:04;;;;;;;12.87;8.17;;;-1.20;91.30;;;2.44;51.12;96397.69;5004974;28;20048;-53
2022/12/09 04:37:33;;;;;;;12.83;7.13;;;-1.20;91.90;;;2.45;51.42;96388.84;5004986;28;20042;-51
2022/12/09 04:40:00;;;;;;;16.73;7.20;;;-1.10;91.70;;;2.46;51.16;96387.88;5004286;28;20052;-52
2022/12/09 04:42:29;;;;;;;12.13;7.10;;;-1.20;90.60;;;2.46;51.16;96383.47;5005261;28;20061;-54
2022/12/09 04:44:57;;;;;;;12.83;7.20;;;-1.20;91.00;;;2.47;50.99;96379.03;5004216;28;20054;-52
2022/12/09 04:47:25;;;;;;;12.10;7.43;;;-1.20;91.30;;;2.49;51.11;96374.47;5003789;28;20054;-51
2022/12/09 04:49:53;;;;;;;15.63;8.30;;;-1.10;91.20;;;2.50;51.15;96373.47;5004216;28;20402;-50
2022/12/09 04:52:21;;;;;;;11.77;7.10;;;-1.10;90.90;;;2.47;51.38;96358.81;5003455;28;20049;-52
2022/12/09 04:54:49;;;;;;;13.00;6.33;;;-1.20;90.20;;;2.48;51.14;96354.41;5005018;28;20049;-54
2022/12/09 04:57:18;;;;;;;9.53;6.77;;;-1.20;90.80;;;2.49;51.02;96356.06;5004129;28;20057;-54
2022/12/09 04:59:46;;;;;;;12.07;6.40;;;-1.20;91.10;;;2.45;51.27;96354.69;5003174;28;20049;-49
2022/12/09 05:02:14;;;;;;;11.07;6.73;;;-1.30;90.40;;;2.41;50.77;96356.78;5003295;28;20054;-53
2022/12/09 05:04:43;;;;;;;10.97;6.90;;;-1.40;91.70;;;2.41;50.80;96350.69;5004338;28;20056;-50
2022/12/09 05:07:13;;;;;;;14.13;8.93;;;-1.30;92.30;;;2.42;50.82;96349.72;5004258;28;20043;-52
2022/12/09 05:09:41;;;;;;;14.50;8.50;;;-1.30;92.40;;;2.43;51.19;96340.88;5003199;28;20053;-50
2022/12/09 05:12:09;;;;;;;12.47;6.50;;;-1.30;92.30;;;2.44;51.34;96342.50;5003689;28;20038;-49
2022/12/09 05:14:37;;;;;;;13.27;7.97;;;-1.20;92.10;;;2.45;51.26;96344.19;5004261;28;20048;-53
2022/12/09 05:17:06;;;;;;;14.23;8.17;;;-1.20;92.20;;;2.42;51.07;96337.41;5004066;28;20049;-52
2022/12/09 05:19:34;;;;;;;41.00;18.67;;;-1.20;92.10;;;2.43;51.63;96344.31;5003822;28;20046;-52
2022/12/09 05:22:02;;;;;;;28.47;14.93;;;-1.20;92.10;;;2.44;51.10;96335.44;5003595;28;20050;-53
2022/12/09 05:24:31;;;;;;;30.97;15.00;;;-1.20;90.90;;;2.45;50.68;96329.25;5003076;28;20054;-52
2022/12/09 05:26:59;;;;;;;31.53;15.33;;;-1.20;92.00;;;2.45;50.86;96329.25;5003978;28;20244;-52
2022/12/09 05:29:27;;;;;;;33.93;17.37;;;-1.20;91.50;;;2.45;51.43;96325.78;4995899;28;20076;-52
2022/12/09 05:31:55;;;;;;;31.67;15.10;;;-1.20;91.50;;;2.45;50.80;96325.78;5001834;28;20046;-50
2022/12/09 05:34:23;;;;;;;33.23;15.77;;;-1.20;91.90;;;2.46;51.37;96333.53;5002316;28;20049;-52
2022/12/09 05:36:52;;;;;;;27.00;12.40;;;-1.20;91.30;;;2.47;50.94;96334.38;5003749;28;20038;-50
2022/12/09 05:39:20;;;;;;;42.87;17.60;;;-1.20;91.50;;;2.43;51.03;96336.44;5003708;28;20046;-54
2022/12/09 05:41:48;;;;;;;29.60;14.23;;;-1.30;91.20;;;2.38;50.79;96327.34;5002334;28;20046;-54
2022/12/09 05:44:16;;;;;;;23.23;12.03;;;-1.40;91.60;;;2.36;50.96;96333.56;5002365;28;20057;-54
2022/12/09 05:46:44;;;;;;;15.47;9.50;;;-1.40;92.30;;;2.39;51.34;96329.00;5003626;28;20248;-54
2022/12/09 05:49:12;;;;;;;16.77;9.90;;;-1.30;92.80;;;2.40;50.96;96320.94;5002343;28;20248;-54
2022/12/09 05:51:41;;;;;;;18.00;9.50;;;-1.30;92.40;;;2.41;50.88;96322.63;5002302;28;20050;-49
2022/12/09 05:54:09;;;;;;;19.10;9.77;;;-1.30;92.90;;;2.45;51.14;96317.91;5002378;28;20244;-53
2022/12/09 05:56:38;;;;;;;15.97;9.63;;;-1.20;92.80;;;2.47;51.07;96319.41;5002665;28;20244;-51
2022/12/09 05:59:12;;;;;;;15.80;10.30;;;-1.20;92.30;;;2.47;51.16;96316.78;5018225;28;20247;-53
2022/12/09 06:01:41;;;;;;;19.83;11.47;;;-1.20;92.50;;;2.53;51.06;96320.66;5003016;28;20048;-52
2022/12/09 06:04:09;;;;;;;18.93;11.07;;;-1.10;92.70;;;2.53;51.03;96312.78;5001994;28;20060;-52
2022/12/09 06:06:37;;;;;;;22.43;11.13;;;-1.10;92.20;;;2.55;50.93;96313.44;5003288;28;20061;-50
2022/12/09 06:09:10;;;;;;;22.47;12.17;;;-1.00;92.20;;;2.55;51.26;96311.66;5018714;28;20064;-52
2022/12/09 06:11:39;;;;;;;16.75;9.98;;;-1.00;92.00;;;2.55;51.06;96306.38;5002860;28;20046;-56
2022/12/09 06:14:09;;;;;;;17.57;11.00;;;-1.10;92.00;;;2.54;51.64;96310.00;5001263;28;20367;-57
2022/12/09 06:16:38;;;;;;;21.67;10.80;;;-1.10;92.50;;;2.56;51.59;96300.19;5002113;28;20042;-56
2022/12/09 06:19:10;;;;;;;20.63;10.03;;;-1.00;92.50;;;2.59;51.15;96300.84;5002959;28;20054;-56
2022/12/09 06:21:40;;;;;;;20.40;10.50;;;-1.00;92.10;;;2.60;51.35;96303.34;5001814;28;20043;-57
2022/12/09 06:24:09;;;;;;;20.77;12.47;;;-1.00;92.20;;;2.61;51.63;96296.28;5002705;28;20045;-56
2022/12/09 06:26:37;;;;;;;20.77;11.57;;;-1.00;91.90;;;2.60;51.38;96292.84;5002133;28;20054;-57
2022/12/09 06:29:05;;;;;;;19.50;11.43;;;-1.00;91.50;;;2.63;51.47;96295.16;5001915;28;20141;-58
2022/12/09 06:31:33;;;;;;;18.20;9.93;;;-1.00;92.10;;;2.67;51.41;96293.88;5002618;28;20263;-56
2022/12/09 06:34:01;;;;;;;18.23;10.23;;;-0.90;92.40;;;2.70;51.47;96290.97;5001715;28;20060;-53
2022/12/09 06:36:30;;;;;;;35.57;13.80;;;-0.90;92.10;;;2.73;51.48;96295.13;5001470;28;20050;-57
2022/12/09 06:39:01;;;;;;;46.93;19.53;;;-0.90;91.80;;;2.72;51.42;96289.03;5002793;28;20038;-57
2022/12/09 06:41:40;;;;;;;49.50;21.90;;;-0.90;92.20;;;2.75;51.29;96301.06;4995265;28;20241;-57
2022/12/09 06:44:11;;;;;;;34.83;15.43;;;-0.90;92.50;;;2.78;51.37;96299.97;5002612;28;20046;-58
2022/12/09 06:46:46;;;;;;;30.73;14.00;;;-0.80;92.40;;;2.79;51.64;96298.97;5001525;28;20348;-58
2022/12/09 06:49:14;;;;;;;25.07;12.23;;;-0.80;91.90;;;2.80;51.39;96295.38;5002349;28;20048;-58
2022/12/09 06:51:42;;;;;;;35.10;16.57;;;-0.80;92.30;;;2.82;51.70;96302.13;5001166;28;20072;-56
2022/12/09 06:54:10;;;;;;;56.70;21.40;;;-0.80;91.80;;;2.81;51.37;96300.50;5002305;28;20213;-55
2022/12/09 06:56:38;;;;;;;43.37;19.87;;;-0.80;91.70;;;2.83;51.44;96302.94;5002639;28;20256;-57
2022/12/09 06:59:08;;;;;;;46.93;18.10;;;-0.80;91.60;;;2.83;51.24;96301.19;5002485;28;20040;-58
2022/12/09 07:01:37;;;;;;;33.23;15.83;;;-0.80;92.00;;;2.85;51.69;96299.22;5002090;28;20052;-58
2022/12/09 07:04:06;;;;;;;28.57;13.60;;;-0.80;92.00;;;2.86;51.22;96300.88;5001468;28;20064;-57
2022/12/09 07:06:42;;;;;;;26.53;13.53;;;-0.80;92.00;;;2.87;51.59;96291.16;4994354;28;20046;-58
2022/12/09 07:09:16;;;;;;;22.63;11.23;;;-0.80;92.50;;;2.88;51.54;96298.91;5002119;28;20054;-56
2022/12/09 07:11:46;;;;;;;29.10;13.57;;;-0.70;92.40;;;2.89;51.65;96297.97;5002278;28;20046;-58
2022/12/09 07:14:16;;;;;;;24.07;11.80;;;-0.60;92.00;;;2.94;51.82;96306.22;5001954;28;20044;-58
2022/12/09 07:16:45;;;;;;;23.87;11.90;;;-0.60;91.70;;;2.95;51.37;96300.00;5002348;28;20042;-59
2022/12/09 07:19:16;;;;;;;26.90;13.70;;;-0.60;91.80;;;3.00;51.10;96301.34;5000902;28;20046;-58
2022/12/09 07:21:45;;;;;;;26.00;13.87;;;-0.60;91.30;;;3.01;51.30;96297.75;5000621;28;20049;-58
2022/12/09 07:24:14;;;;;;;24.17;12.43;;;-0.60;91.80;;;3.03;51.38;96298.44;5001183;28;20052;-57
2022/12/09 07:26:42;;;;;;;29.17;12.53;;;-0.60;91.60;;;3.07;51.46;96294.53;4999281;28;20046;-58
2022/12/09 07:29:10;;;;;;;20.80;13.63;;;-0.50;92.00;;;3.08;51.27;96293.56;5016794;28;20062;-59
2022/12/09 07:31:38;;;;;;;27.93;14.30;;;-0.50;91.90;;;3.09;51.10;96295.22;5002074;28;20244;-59
2022/12/09 07:34:06;;;;;;;23.97;13.30;;;-0.50;91.80;;;3.11;51.38;96288.81;5002322;28;20038;-58
2022/12/09 07:36:36;;;;;;;20.07;11.90;;;-0.50;91.70;;;3.11;51.43;96294.09;4994529;28;20045;-59
2022/12/09 07:39:10;;;;;;;19.20;12.10;;;-0.50;91.70;;;3.14;51.42;96288.53;5002170;28;20045;-58
2022/12/09 07:41:38;;;;;;;19.50;10.82;;;-0.50;92.10;;;3.17;51.41;96282.16;4994581;28;20038;-58
2022/12/09 07:44:07;;;;;;;26.53;14.13;;;-0.40;92.20;;;3.22;51.54;96285.19;5001002;28;20038;-58
2022/12/09 07:46:35;;;;;;;24.67;13.77;;;-0.40;92.20;;;3.23;51.29;96286.81;5002228;28;20042;-59
2022/12/09 07:49:04;;;;;;;18.40;9.83;;;-0.40;92.00;;;3.28;51.31;96289.00;5001150;28;20038;-58
2022/12/09 07:51:33;;;;;;;26.43;12.10;;;-0.40;92.20;;;3.26;51.31;96294.41;5001374;28;20266;-59
2022/12/09 07:54:01;;;;;;;45.20;18.03;;;-0.40;91.80;;;3.28;51.61;96296.91;5001803;28;20064;-59
2022/12/09 07:56:30;;;;;;;22.87;11.13;;;-0.40;93.00;;;3.32;51.36;96300.88;5002143;28;20050;-58
2022/12/09 07:58:58;;;;;;;38.63;15.83;;;-0.40;92.80;;;3.32;51.44;96300.88;5001791;28;20042;-58
2022/12/09 08:01:28;;;;;;;37.60;15.10;;;-0.40;92.80;;;3.39;51.43;96294.03;5000809;28;20058;-58
2022/12/09 08:03:57;;;;;;;58.40;20.87;;;-0.30;92.60;;;3.43;51.34;96298.03;5000867;28;20225;-58
2022/12/09 08:06:28;;;;;;;28.80;12.23;;;-0.30;92.90;;;3.46;51.17;96300.38;5001853;28;20042;-59
2022/12/09 08:09:00;;;;;;;17.27;9.60;;;-0.30;92.80;;;3.51;51.48;96300.75;5000770;28;20060;-59
2022/12/09 08:11:30;;;;;;;19.83;10.33;;;-0.20;92.60;;;3.55;51.18;96296.84;5001510;28;20378;-58
2022/12/09 08:14:03;;;;;;;24.30;11.97;;;-0.20;92.30;;;3.59;51.45;96299.16;5000728;28;20345;-59
2022/12/09 08:16:41;;;;;;;23.23;9.97;;;-0.20;92.70;;;3.65;51.37;96290.69;4994384;28;20042;-59
2022/12/09 08:19:11;;;;;;;19.57;9.70;;;-0.10;92.60;;;3.67;51.33;96292.16;5003784;28;20248;-59
2022/12/09 08:21:40;;;;;;;42.80;18.20;;;0.00;92.60;;;3.70;51.25;96285.78;5004837;28;20042;-58
2022/12/09 08:24:10;;;;;;;39.63;15.70;;;0.00;92.20;;;3.77;51.42;96289.47;5004172;28;20048;-59
2022/12/09 08:26:40;;;;;;;33.13;13.90;;;0.00;92.40;;;3.82;51.68;96286.34;4997626;28;20061;-59
2022/12/09 08:29:11;;;;;;;25.97;12.00;;;0.10;92.10;;;3.86;51.34;96279.84;5005542;28;20050;-59
2022/12/09 08:31:41;;;;;;;19.93;11.70;;;0.10;92.20;;;3.89;51.21;96280.31;4996658;28;20353;-59
2022/12/09 08:34:10;;;;;;;15.27;9.93;;;0.20;91.70;;;3.96;51.32;96283.19;5020054;28;20363;-58
2022/12/09 08:36:40;;;;;;;19.33;11.10;;;0.30;91.60;;;4.01;51.22;96277.47;4997436;28;20360;-58
2022/12/09 08:39:09;;;;;;;25.93;12.50;;;0.30;91.00;;;4.06;50.99;96269.94;5005096;28;20038;-58
2022/12/09 08:41:38;;;;;;;27.83;13.50;;;0.40;91.10;;;4.09;50.97;96270.47;4995914;28;20260;-58
2022/12/09 08:44:09;;;;;;;26.33;11.47;;;0.40;90.40;;;4.10;50.79;96268.63;5004895;28;20042;-56
2022/12/09 08:46:41;;;;;;;28.50;11.57;;;0.40;90.60;;;4.15;51.04;96261.09;4996821;28;20046;-58
2022/12/09 08:49:10;;;;;;;21.43;10.47;;;0.40;91.60;;;4.21;50.81;96268.38;5005101;28;20046;-58
2022/12/09 08:51:39;;;;;;;32.63;13.50;;;0.50;91.30;;;4.22;50.63;96254.22;4995666;28;20046;-59
2022/12/09 08:54:07;;;;;;;19.77;11.07;;;0.50;90.80;;;4.26;50.93;96260.00;5004656;28;20050;-59
2022/12/09 08:56:35;;;;;;;21.50;12.63;;;0.50;91.00;;;4.28;50.90;96256.22;5004550;28;20048;-59
2022/12/09 08:59:04;;;;;;;22.33;10.83;;;0.50;90.60;;;4.31;50.76;96266.47;5004665;28;20102;-58
2022/12/09 09:01:33;;;;;;;15.83;8.73;;;0.50;91.10;;;4.29;50.55;96260.53;5004157;28;20049;-59
2022/12/09 09:04:11;;;;;;;15.27;9.67;;;0.50;89.70;;;4.30;51.12;96258.72;5003443;28;20248;-58
2022/12/09 09:06:43;;;;;;;14.30;9.10;;;0.50;91.10;;;4.33;51.08;96256.59;5004378;28;20280;-59
2022/12/09 09:09:13;;;;;;;19.03;9.10;;;0.50;91.00;;;4.32;50.97;96254.09;5003473;28;20044;-58
2022/12/09 09:11:42;;;;;;;18.17;10.33;;;0.50;90.90;;;4.30;50.68;96254.28;4996539;28;20345;-58
2022/12/09 09:14:13;;;;;;;17.80;10.10;;;0.50;90.90;;;4.28;50.38;96258.84;5003257;28;20048;-57
2022/12/09 09:16:43;;;;;;;16.53;10.77;;;0.40;90.50;;;4.26;51.04;96254.75;4996526;28;20044;-59
2022/12/09 09:19:19;;;;;;;15.40;9.73;;;0.40;90.80;;;4.23;50.43;96255.06;5002778;28;20042;-58
2022/12/09 09:21:47;;;;;;;15.77;9.53;;;0.30;91.80;;;4.25;50.76;96256.56;5011890;28;20039;-58
2022/12/09 09:24:18;;;;;;;14.57;7.93;;;0.40;91.80;;;4.20;50.67;96248.28;5004079;28;20050;-58
2022/12/09 09:26:50;;;;;;;13.23;8.67;;;0.40;91.60;;;4.16;51.08;96246.94;5004055;28;20394;-57
2022/12/09 09:29:22;;;;;;;14.97;10.07;;;0.40;92.30;;;4.18;50.91;96252.88;5002779;28;20272;-57
2022/12/09 09:31:52;;;;;;;14.70;8.80;;;0.40;93.20;;;4.20;51.20;96250.09;5002056;28;20046;-59
2022/12/09 09:34:23;;;;;;;15.87;9.87;;;0.50;92.70;;;4.13;51.34;96250.72;5002907;28;20251;-58
2022/12/09 09:36:53;;;;;;;20.27;10.73;;;0.40;92.00;;;4.17;50.84;96245.97;5003318;28;20046;-58
2022/12/09 09:39:21;;;;;;;66.27;26.90;;;0.40;92.90;;;4.20;51.20;96247.47;5003590;28;20245;-58
2022/12/09 09:41:57;;;;;;;30.33;16.20;;;0.40;93.70;;;4.25;51.48;96247.84;5002564;28;20042;-58
2022/12/09 09:44:47;;;;;;;22.83;11.27;;;0.50;93.70;;;4.30;51.17;96254.28;5002835;28;20357;-56
2022/12/09 09:47:34;;;;;;;24.83;14.10;;;0.60;93.70;;;4.33;51.62;96248.69;5002377;28;20050;-57
2022/12/09 09:50:18;;;;;;;24.20;12.60;;;0.70;93.60;;;4.41;51.46;96245.28;5003333;28;20048;-57
2022/12/09 09:52:46;;;;;;;28.87;14.10;;;0.70;93.60;;;4.48;51.50;96242.84;4996247;28;20050;-57
2022/12/09 09:55:17;;;;;;;42.50;18.70;;;0.70;92.80;;;4.53;51.39;96236.09;5002507;28;20048;-58
2022/12/09 09:58:25;;;;;;;35.33;17.03;;;0.80;93.00;;;4.51;50.99;96230.16;4996334;28;20038;-58
2022/12/09 10:01:04;;;;;;;27.40;13.27;;;0.80;92.70;;;4.63;51.23;96222.78;4997047;28;20052;-58
2022/12/09 10:03:57;;;;;;;33.13;14.83;;;0.90;91.80;;;4.69;51.24;96222.19;5003551;28;20068;-58
2022/12/09 10:06:55;;;;;;;19.47;11.13;;;0.90;92.30;;;4.70;51.10;96220.38;5003240;28;20057;-58
2022/12/09 10:09:50;;;;;;;33.87;15.97;;;1.00;91.80;;;4.68;50.79;96215.25;5002073;28;20291;-59
2022/12/09 10:12:21;;;;;;;27.57;14.20;;;0.90;91.90;;;4.74;50.62;96217.25;5002346;28;20042;-58
2022/12/09 10:15:17;;;;;;;26.83;14.77;;;0.90;92.20;;;4.72;51.05;96218.41;5003209;28;20042;-58
2022/12/09 10:17:52;;;;;;;23.63;13.97;;;0.90;92.10;;;4.78;51.05;96206.38;4995180;28;20353;-58
2022/12/09 10:20:27;;;;;;;20.63;11.77;;;1.00;92.40;;;4.80;50.68;96209.69;5001314;28;20051;-58
2022/12/09 10:23:10;;;;;;;22.87;12.10;;;0.90;91.90;;;4.82;50.97;96207.72;5001993;28;20042;-58
2022/12/09 10:25:50;;;;;;;26.13;12.57;;;1.00;91.90;;;4.86;50.74;96211.69;5002002;28;20042;-57
2022/12/09 10:28:25;;;;;;;27.77;13.03;;;1.00;91.30;;;4.90;51.38;96213.00;4999446;28;20068;-57
2022/12/09 10:30:54;;;;;;;31.67;16.77;;;1.10;91.60;;;4.95;50.85;96213.34;5001233;28;20046;-58
2022/12/09 10:33:31;;;;;;;23.73;12.93;;;1.10;91.20;;;4.99;50.73;96212.03;5001845;28;20360;-59
2022/12/09 10:35:59;;;;;;;21.50;13.30;;;1.20;91.40;;;5.05;50.91;96207.94;5001758;28;20046;-58
2022/12/09 10:38:30;;;;;;;20.17;13.60;;;1.20;91.00;;;5.07;50.94;96198.88;5003343;28;20058;-58
2022/12/09 10:44:32;;;;;;;21.57;11.40;;;1.30;90.90;;;5.14;50.38;96204.34;4999078;28;20352;-59
2022/12/09 10:47:17;;;;;;;22.50;12.37;;;1.30;90.40;;;5.19;50.72;96195.91;5002728;28;20046;-55